Главная страница
METAR-TAF:

METAR-TAF

Аэропорты :

Нджамена, Чад

широта: 12-08N, долгота: 015-02E, высота над уровнем моря: 295 м

Текущие метеонаблюдения

Эта сводка был подготовлена 23 минут назад, в 02:00 UTC
Ветер 4 Узел от северо-восточный
Температура 30°C
Влажность 29%
Давление 1004 hPa
Видимость: 6000 м

METAR: FTTJ 040200Z 04004KT 6000 NSC 30/10 Q1004 NOSIG

Время: 03:23 (02:23 UTC)

Прогноз

Эта сводка был подготовлена 3 часа и 23 минут назад, в 23:00 UTC
Прогноз действительный с 04-го 00 UTC до 05-го 06 UTC
Ветер 6 Узел от северно-северо-западный
Видимость: 8000 м

TAF: FTTJ 032300Z 0400/0506 33006KT 8000 NSC

Метеонаблюдения и прогнозы для более 4000 аэропортов (сводки METAR и TAF).

Имеющиеся станции представлены на карте желтыми и красными точками.

Чтобы увидеть название станции, наведите на нее мышь.

Затем щелкните, чтобы увидеть метеонаблюдения и метеопрогнозы.

Управление картой: чтобы увеличить масштаб, щелкните зеленые кнопки с черным крестиком; чтобы уменьшить масштаб, щелкните зеленую кнопку с тире; для просмотра соседних карт щелкайте зеленые стрелки.


METAR-TAF: